createdAt,value
2022-10-17T00:00:38.150Z,102014.28
2022-10-17T00:03:07.445Z,102009.03
2022-10-17T00:05:35.655Z,102023.88
2022-10-17T00:08:03.524Z,102029.97
2022-10-17T00:10:31.350Z,102035.22
2022-10-17T00:12:59.229Z,102032.66
2022-10-17T00:15:27.131Z,102032.66
2022-10-17T00:17:55.197Z,102046.75
2022-10-17T00:20:24.906Z,102050.28
2022-10-17T00:22:53.090Z,102067.88
2022-10-17T00:25:21.040Z,102072.28
2022-10-17T00:27:48.923Z,102071.44
2022-10-17T00:30:17.686Z,102087.19
2022-10-17T00:32:45.786Z,102090.75
2022-10-17T00:35:13.646Z,102099.53
2022-10-17T00:37:42.905Z,102109.19
2022-10-17T00:40:12.080Z,102107.41
2022-10-17T00:42:40.166Z,102103.94
2022-10-17T00:45:15.787Z,102108.34
2022-10-17T00:47:46.952Z,102113.59
2022-10-17T00:50:16.070Z,102117.16
2022-10-17T00:52:47.208Z,102123.22
2022-10-17T00:55:18.527Z,102125.09
2022-10-17T00:57:47.280Z,102138.31
2022-10-17T01:00:17.553Z,102151.47
2022-10-17T01:02:46.580Z,102154.34
2022-10-17T01:05:15.715Z,102156.31
2022-10-17T01:07:47.075Z,102168.66
2022-10-17T01:10:15.757Z,102168.72
2022-10-17T01:12:58.299Z,102167.09
2022-10-17T01:15:39.061Z,102188.09
2022-10-17T01:18:16.759Z,102195.19
2022-10-17T01:21:22.836Z,102203.06
2022-10-17T01:24:23.072Z,102206.56
2022-10-17T01:27:27.063Z,102214.47
2022-10-17T01:30:09.460Z,102218.03
2022-10-17T01:32:42.329Z,102218.03
2022-10-17T01:35:14.907Z,102223.34
2022-10-17T01:37:49.484Z,102227.72
2022-10-17T01:40:23.030Z,102230.44
2022-10-17T01:42:59.371Z,102247.09
2022-10-17T01:45:32.794Z,102250.72
2022-10-17T01:48:08.620Z,102259.53
2022-10-17T01:50:42.687Z,102259.66
2022-10-17T01:53:15.818Z,102266.72
2022-10-17T01:55:46.787Z,102266.88
2022-10-17T01:58:22.185Z,102269.63
2022-10-17T02:00:51.616Z,102265.41
2022-10-17T02:03:23.433Z,102273.41
2022-10-17T02:05:51.610Z,102273.41
2022-10-17T02:08:27.544Z,102278.72
2022-10-17T02:10:59.484Z,102298.06
2022-10-17T02:13:42.769Z,102306.94
2022-10-17T02:16:24.721Z,102309.66
2022-10-17T02:19:08.481Z,102309.78
2022-10-17T02:21:46.009Z,102318.66
2022-10-17T02:24:21.915Z,102322.97
2022-10-17T02:26:56.585Z,102330.03
2022-10-17T02:29:31.570Z,102333.59
2022-10-17T02:32:05.322Z,102331.03
2022-10-17T02:34:39.473Z,102329.31
2022-10-17T02:37:09.526Z,102334.63
2022-10-17T02:39:39.325Z,102336.38
2022-10-17T02:42:10.551Z,102346.03
2022-10-17T02:44:40.819Z,102352.13
2022-10-17T02:47:18.162Z,102352.25
2022-10-17T02:49:52.345Z,102354.94
2022-10-17T02:52:27.689Z,102368.97
2022-10-17T02:55:01.516Z,102370.78
2022-10-17T02:57:35.266Z,102378.75
2022-10-17T03:00:05.541Z,102388.38
2022-10-17T03:02:41.216Z,102386.63
2022-10-17T03:05:12.380Z,102400.69
2022-10-17T03:07:40.622Z,102408.56
2022-10-17T03:10:09.197Z,102412.25
2022-10-17T03:12:37.143Z,102417.53
2022-10-17T03:15:05.747Z,102427.22
2022-10-17T03:17:33.746Z,102429.97
2022-10-17T03:20:01.624Z,102436.22
2022-10-17T03:22:31.149Z,102441.59
2022-10-17T03:24:59.578Z,102457.47
2022-10-17T03:27:28.091Z,102462.91
2022-10-17T03:29:56.975Z,102458.72
2022-10-17T03:32:24.853Z,102472.81
2022-10-17T03:34:52.801Z,102479.06
2022-10-17T03:37:20.731Z,102483.56
2022-10-17T03:39:49.977Z,102495.03
2022-10-17T03:42:17.895Z,102494.19
2022-10-17T03:44:45.748Z,102502.97
2022-10-17T03:47:14.318Z,102509.97
2022-10-17T03:49:42.421Z,102513.50
2022-10-17T03:52:12.960Z,102522.22
2022-10-17T03:54:40.834Z,102530.09
2022-10-17T03:57:10.131Z,102541.47
2022-10-17T03:59:38.011Z,102544.94
2022-10-17T04:02:05.857Z,102542.41
2022-10-17T04:04:33.722Z,102549.31
2022-10-17T04:07:01.613Z,102551.06
2022-10-17T04:09:29.481Z,102565.88
2022-10-17T04:11:57.432Z,102579.88
2022-10-17T04:14:26.820Z,102589.56
2022-10-17T04:16:54.791Z,102591.31
2022-10-17T04:19:22.790Z,102590.53
2022-10-17T04:21:50.623Z,102594.91
2022-10-17T04:24:18.628Z,102608.00
2022-10-17T04:26:46.590Z,102608.03
2022-10-17T04:29:15.281Z,102608.09
2022-10-17T04:31:44.566Z,102626.44
2022-10-17T04:34:14.175Z,102632.56
2022-10-17T04:36:42.142Z,102637.72
2022-10-17T04:39:10.220Z,102642.06
2022-10-17T04:41:38.201Z,102651.69
2022-10-17T04:44:06.257Z,102658.69
2022-10-17T04:46:34.998Z,102669.16
2022-10-17T04:49:04.553Z,102683.13
2022-10-17T04:51:32.427Z,102684.00
2022-10-17T04:54:00.327Z,102687.50
2022-10-17T04:56:28.206Z,102702.28
2022-10-17T04:58:56.150Z,102706.69
2022-10-17T05:01:25.020Z,102709.25
2022-10-17T05:03:53.390Z,102710.97
2022-10-17T05:06:24.888Z,102728.41
2022-10-17T05:08:53.005Z,102737.94
2022-10-17T05:11:22.999Z,102745.78
2022-10-17T05:13:52.756Z,102751.13
2022-10-17T05:16:21.116Z,102762.44
2022-10-17T05:18:53.188Z,102772.00
2022-10-17T05:21:25.044Z,102773.81
2022-10-17T05:23:54.059Z,102780.88
2022-10-17T05:26:22.420Z,102779.25
2022-10-17T05:28:52.513Z,102795.97
2022-10-17T05:31:20.579Z,102799.56
2022-10-17T05:33:48.418Z,102805.75
2022-10-17T05:36:16.319Z,102811.06
2022-10-17T05:38:45.579Z,102823.31
2022-10-17T05:41:13.435Z,102833.00
2022-10-17T05:43:41.298Z,102831.38
2022-10-17T05:46:09.221Z,102834.88
2022-10-17T05:48:37.312Z,102851.56
2022-10-17T05:51:07.923Z,102850.78
2022-10-17T05:53:39.625Z,102860.44
2022-10-17T05:56:11.271Z,102863.06
2022-10-17T05:58:51.591Z,102868.22
2022-10-17T06:01:21.187Z,102884.66
2022-10-17T06:03:49.152Z,102888.06
2022-10-17T06:06:19.328Z,102889.84
2022-10-17T06:08:47.626Z,102901.28
2022-10-17T06:11:16.993Z,102909.28
2022-10-17T06:13:44.888Z,102912.88
2022-10-17T06:16:12.857Z,102912.13
2022-10-17T06:18:40.781Z,102927.97
2022-10-17T06:21:11.414Z,102928.97
2022-10-17T06:23:39.331Z,102943.91
2022-10-17T06:26:08.170Z,102958.84
2022-10-17T06:28:37.939Z,102952.88
2022-10-17T06:31:07.605Z,102963.44
2022-10-17T06:33:36.192Z,102965.28
2022-10-17T06:36:05.679Z,102982.84
2022-10-17T06:38:34.710Z,102983.78
2022-10-17T06:41:08.589Z,102996.06
2022-10-17T06:43:38.851Z,103000.56
2022-10-17T06:46:10.248Z,103001.50
2022-10-17T06:48:38.211Z,103012.84
2022-10-17T06:51:09.804Z,103024.13
2022-10-17T06:53:37.862Z,103031.91
2022-10-17T06:56:07.624Z,103027.50
2022-10-17T06:58:39.818Z,103037.00
2022-10-17T07:01:09.934Z,103044.78
2022-10-17T07:03:38.406Z,103050.84
2022-10-17T07:06:06.786Z,103059.56
2022-10-17T07:08:34.936Z,103064.81
2022-10-17T07:11:10.714Z,103077.09
2022-10-17T07:13:40.989Z,103085.81
2022-10-17T07:16:12.580Z,103102.44
2022-10-17T07:18:41.142Z,103110.38
2022-10-17T07:21:09.675Z,103124.34
2022-10-17T07:23:38.681Z,103127.00
2022-10-17T07:26:08.521Z,103143.56
2022-10-17T07:28:37.820Z,103145.28
2022-10-17T07:31:08.962Z,103153.94
2022-10-17T07:33:37.268Z,103160.81
2022-10-17T07:36:06.746Z,103171.13
2022-10-17T07:38:35.224Z,103178.81
2022-10-17T07:41:05.218Z,103184.81
2022-10-17T07:43:33.876Z,103193.47
2022-10-17T07:46:02.525Z,103209.03
2022-10-17T07:48:32.017Z,103210.72
2022-10-17T07:51:03.568Z,103226.41
2022-10-17T07:53:31.948Z,103229.84
2022-10-17T07:55:59.942Z,103237.66
2022-10-17T07:58:28.781Z,103251.50
2022-10-17T08:00:56.786Z,103265.34
2022-10-17T08:03:24.696Z,103274.91
2022-10-17T08:05:57.851Z,103282.72
2022-10-17T08:08:25.872Z,103295.75
2022-10-17T08:10:54.143Z,103316.72
2022-10-17T08:13:22.531Z,103314.97
2022-10-17T08:15:50.588Z,103328.94
2022-10-17T08:18:18.809Z,103334.22
2022-10-17T08:20:46.659Z,103346.44
2022-10-17T08:23:15.896Z,103354.25
2022-10-17T08:25:43.782Z,103353.31
2022-10-17T08:28:11.592Z,103365.53
2022-10-17T08:30:39.475Z,103376.84
2022-10-17T08:33:07.339Z,103383.78
2022-10-17T08:35:35.340Z,103387.25
2022-10-17T08:38:03.232Z,103393.31
2022-10-17T08:40:33.754Z,103402.94
2022-10-17T08:43:33.325Z,103410.75
2022-10-17T08:46:06.288Z,103424.69
2022-10-17T08:48:42.635Z,103429.91
2022-10-17T08:51:17.602Z,103442.97
2022-10-17T08:53:51.102Z,103443.75
2022-10-17T08:56:25.134Z,103454.09
2022-10-17T08:59:13.825Z,103460.81
2022-10-17T09:01:48.727Z,103465.72
2022-10-17T09:04:43.821Z,103474.25
2022-10-17T09:07:16.410Z,103483.72
2022-10-17T09:09:55.486Z,103500.31
2022-10-17T09:12:33.287Z,103517.00
2022-10-17T09:15:30.468Z,103530.06
2022-10-17T09:18:03.558Z,103544.78
2022-10-17T09:20:35.466Z,103555.22
2022-10-17T09:23:11.788Z,103569.13
2022-10-17T09:25:44.177Z,103581.34
2022-10-17T09:28:20.487Z,103585.66
2022-10-17T09:30:52.915Z,103590.91
2022-10-17T09:33:35.072Z,103601.34
2022-10-17T09:36:14.283Z,103609.22
2022-10-17T09:38:44.347Z,103613.53
2022-10-17T09:41:43.793Z,103617.00
2022-10-17T09:44:18.322Z,103638.81
2022-10-17T09:46:59.823Z,103646.59
2022-10-17T09:49:33.365Z,103656.03
2022-10-17T09:52:02.409Z,103676.13
2022-10-17T09:54:40.941Z,103690.81
2022-10-17T09:57:11.161Z,103698.53
2022-10-17T09:59:43.380Z,103715.13
2022-10-17T10:02:18.725Z,103722.94
2022-10-17T10:05:05.600Z,103753.44
2022-10-17T10:07:36.682Z,103767.44
2022-10-17T10:10:07.266Z,103788.31
2022-10-17T10:12:37.806Z,103816.22
2022-10-17T10:15:35.934Z,103830.97
2022-10-17T10:18:04.270Z,103851.94
2022-10-17T10:20:37.208Z,103878.03
2022-10-17T10:23:13.364Z,103887.50
2022-10-17T10:25:51.584Z,103907.59
2022-10-17T10:28:19.956Z,103942.50
2022-10-17T10:30:52.407Z,103962.63
2022-10-17T10:33:22.063Z,103974.78
2022-10-17T10:35:57.679Z,103976.44
2022-10-17T10:38:25.853Z,103971.94
2022-10-17T10:40:56.690Z,103983.28
2022-10-17T10:43:33.269Z,103995.50
2022-10-17T10:46:06.612Z,104008.59
2022-10-17T10:48:37.060Z,104007.84
2022-10-17T10:51:09.891Z,104007.13
2022-10-17T10:53:45.601Z,104004.50
2022-10-17T10:56:17.842Z,104023.72
2022-10-17T10:58:55.870Z,104021.94
2022-10-17T11:01:31.822Z,104035.91
2022-10-17T11:04:27.615Z,104040.28
2022-10-17T11:07:03.397Z,104029.78
2022-10-17T11:09:46.036Z,104017.59
2022-10-17T11:12:20.665Z,104016.72
2022-10-17T11:14:54.317Z,104022.19
2022-10-17T11:17:32.666Z,104023.22
2022-10-17T11:20:10.933Z,104030.38
2022-10-17T11:22:43.363Z,104043.56
2022-10-17T11:25:23.146Z,104068.06
2022-10-17T11:27:51.149Z,104092.56
2022-10-17T11:30:19.226Z,104099.66
2022-10-17T11:32:54.870Z,104107.66
2022-10-17T11:35:26.451Z,104119.00
2022-10-17T11:38:01.550Z,104121.63
2022-10-17T11:40:34.997Z,104140.09
2022-10-17T11:43:06.450Z,104148.91
2022-10-17T11:45:38.072Z,104159.50
2022-10-17T11:48:14.928Z,104168.31
2022-10-17T11:53:47.171Z,104189.38
2022-10-17T11:56:19.790Z,104191.97
2022-10-17T11:58:55.511Z,104194.47
2022-10-17T12:01:31.625Z,104193.31
2022-10-17T12:04:13.957Z,104185.22
2022-10-17T12:07:01.320Z,104160.63
2022-10-17T12:09:42.643Z,104134.31
2022-10-17T12:12:10.698Z,104121.22
2022-10-17T12:14:43.949Z,104116.00
2022-10-17T12:17:29.791Z,104118.69
2022-10-17T12:20:27.306Z,104111.66
2022-10-17T12:22:57.532Z,104094.09
2022-10-17T12:25:30.684Z,104060.81
2022-10-17T12:28:18.755Z,104025.03
2022-10-17T12:30:56.839Z,104017.19
2022-10-17T12:33:32.964Z,104017.19
2022-10-17T12:36:45.648Z,104031.94
2022-10-17T12:39:50.578Z,104066.47
2022-10-17T12:42:51.699Z,104086.88
2022-10-17T12:45:51.476Z,104071.47
2022-10-17T12:48:55.391Z,104017.59
2022-10-17T12:51:40.482Z,103983.69
2022-10-17T12:54:13.580Z,103957.59
2022-10-17T12:56:44.079Z,103939.34
2022-10-17T12:59:17.906Z,103804.56
2022-10-17T13:01:49.145Z,103664.59
2022-10-17T13:04:18.009Z,103511.41
2022-10-17T13:06:48.318Z,103391.63
2022-10-17T13:09:26.395Z,103341.81
2022-10-17T13:11:55.843Z,103314.91
2022-10-17T13:14:26.437Z,103281.91
2022-10-17T13:16:56.803Z,103256.50
2022-10-17T13:19:27.175Z,103237.31
2022-10-17T13:22:00.961Z,103228.50
2022-10-17T13:24:33.195Z,103159.69
2022-10-17T13:27:02.098Z,103095.06
2022-10-17T13:29:32.822Z,103027.00
2022-10-17T13:32:03.928Z,102977.72
2022-10-17T13:34:34.069Z,102950.75
2022-10-17T13:37:03.989Z,102933.81
2022-10-17T13:39:54.430Z,102917.34
2022-10-17T13:42:26.151Z,102896.28
2022-10-17T13:44:56.434Z,102895.81
2022-10-17T13:47:25.818Z,102914.34
2022-10-17T13:49:55.424Z,102884.31
2022-10-17T13:52:27.632Z,102850.53
2022-10-17T13:54:56.068Z,102831.81
2022-10-17T13:57:26.021Z,102822.31
2022-10-17T13:59:59.500Z,102825.13
2022-10-17T14:02:29.045Z,102794.09
2022-10-17T14:05:22.921Z,102809.38
2022-10-17T14:10:43.486Z,102783.78
2022-10-17T14:13:22.310Z,102791.03
2022-10-17T14:15:53.754Z,102789.16
2022-10-17T14:18:30.856Z,102783.38
2022-10-17T14:23:53.900Z,102765.88
2022-10-17T14:26:24.024Z,102773.22
2022-10-17T14:29:04.259Z,102757.00
2022-10-17T14:31:35.184Z,102742.91
2022-10-17T14:34:05.604Z,102744.97
2022-10-17T14:36:37.081Z,102741.97
2022-10-17T14:39:17.020Z,102704.41
2022-10-17T14:41:46.903Z,102659.97
2022-10-17T14:44:21.837Z,102642.31
2022-10-17T14:46:55.654Z,102623.03
2022-10-17T14:49:29.570Z,102624.53
2022-10-17T14:52:27.405Z,102619.13
2022-10-17T14:54:55.513Z,102623.16
2022-10-17T14:57:29.941Z,102629.59
2022-10-17T14:59:58.023Z,102634.25
2022-10-17T15:02:28.797Z,102617.13
2022-10-17T15:04:56.888Z,102616.94
2022-10-17T15:07:24.854Z,102625.28
2022-10-17T15:09:54.367Z,102609.97
2022-10-17T15:12:25.047Z,102603.88
2022-10-17T15:14:53.759Z,102603.94
2022-10-17T15:17:26.172Z,102592.75
2022-10-17T15:19:56.300Z,102598.22
2022-10-17T15:22:24.505Z,102598.41
2022-10-17T15:24:52.527Z,102609.56
2022-10-17T15:27:22.546Z,102609.06
2022-10-17T15:29:51.636Z,102620.16
2022-10-17T15:32:19.882Z,102622.13
2022-10-17T15:34:47.741Z,102602.44
2022-10-17T15:37:22.021Z,102603.94
2022-10-17T15:39:53.667Z,102607.22
2022-10-17T15:42:23.164Z,102613.50
2022-10-17T15:44:51.114Z,102613.84
2022-10-17T15:47:25.422Z,102616.88
2022-10-17T15:49:53.406Z,102614.06
2022-10-17T15:52:23.039Z,102616.63
2022-10-17T15:54:51.234Z,102610.84
2022-10-17T15:57:21.145Z,102612.84
2022-10-17T15:59:50.417Z,102617.50
2022-10-17T16:02:20.502Z,102616.28
2022-10-17T16:04:49.798Z,102633.25
2022-10-17T16:07:18.172Z,102639.28
2022-10-17T16:09:48.021Z,102641.16
2022-10-17T16:12:18.721Z,102648.34
2022-10-17T16:14:46.737Z,102650.13
2022-10-17T16:17:15.577Z,102663.09
2022-10-17T16:19:43.940Z,102669.13
2022-10-17T16:22:20.884Z,102678.34
2022-10-17T16:24:50.151Z,102679.91
2022-10-17T16:27:17.957Z,102693.78
2022-10-17T16:29:45.800Z,102706.94
2022-10-17T16:32:13.667Z,102722.03
2022-10-17T16:34:41.569Z,102748.56
2022-10-17T16:37:09.558Z,102769.72
2022-10-17T16:39:37.427Z,102792.41
2022-10-17T16:42:06.989Z,102827.44
2022-10-17T16:44:35.370Z,102863.16
2022-10-17T16:47:03.261Z,102892.72
2022-10-17T16:49:31.127Z,102935.59
2022-10-17T16:51:58.950Z,102986.03
2022-10-17T16:54:26.902Z,103023.44
2022-10-17T16:56:54.797Z,103065.06
2022-10-17T16:59:24.491Z,103095.41
2022-10-17T17:01:52.320Z,103134.38
2022-10-17T17:04:20.248Z,103169.88
2022-10-17T17:06:48.277Z,103199.13
2022-10-17T17:09:16.186Z,103216.97
2022-10-17T17:11:44.140Z,103253.22
2022-10-17T17:14:12.806Z,103271.03
2022-10-17T17:16:43.363Z,103289.75
2022-10-17T17:19:14.428Z,103312.00
2022-10-17T17:21:43.149Z,103338.59
2022-10-17T17:24:11.021Z,103346.81
2022-10-17T17:26:39.064Z,103359.38
2022-10-17T17:29:06.978Z,103377.19
2022-10-17T17:31:38.270Z,103394.91
2022-10-17T17:34:07.667Z,103410.91
2022-10-17T17:36:37.698Z,103413.72
2022-10-17T17:39:13.010Z,103436.63
2022-10-17T17:41:41.431Z,103450.69
2022-10-17T17:44:12.483Z,103455.16
2022-10-17T17:46:43.679Z,103470.19
2022-10-17T17:49:12.954Z,103474.72
2022-10-17T17:51:41.550Z,103488.75
2022-10-17T17:54:11.544Z,103501.06
2022-10-17T17:56:40.530Z,103508.13
2022-10-17T17:59:08.530Z,103518.69
2022-10-17T18:01:38.951Z,103523.16
2022-10-17T18:04:09.074Z,103533.66
2022-10-17T18:06:39.544Z,103551.22
2022-10-17T18:09:08.338Z,103558.25
2022-10-17T18:11:37.528Z,103554.81
2022-10-17T18:14:07.910Z,103563.69
2022-10-17T18:16:37.720Z,103564.69
2022-10-17T18:19:07.341Z,103579.75
2022-10-17T18:21:36.136Z,103593.03
2022-10-17T18:24:06.371Z,103604.59
2022-10-17T18:26:34.954Z,103620.50
2022-10-17T18:29:03.173Z,103633.75
2022-10-17T18:31:35.641Z,103642.66
2022-10-17T18:34:05.150Z,103650.63
2022-10-17T18:36:34.275Z,103661.13
2022-10-17T18:39:03.123Z,103662.00
2022-10-17T18:41:33.622Z,103670.75
2022-10-17T18:44:02.962Z,103666.38
2022-10-17T18:46:35.751Z,103669.97
2022-10-17T18:49:04.612Z,103670.84
2022-10-17T18:51:32.589Z,103685.72
2022-10-17T18:54:00.506Z,103687.53
2022-10-17T18:56:28.474Z,103705.03
2022-10-17T18:59:19.952Z,103705.91
2022-10-17T19:01:48.286Z,103711.19
2022-10-17T19:04:16.336Z,103718.28
2022-10-17T19:06:44.502Z,103727.09
2022-10-17T19:09:13.902Z,103727.25
2022-10-17T19:11:42.901Z,103730.00
2022-10-17T19:14:13.942Z,103734.50
2022-10-17T19:16:44.772Z,103743.34
2022-10-17T19:19:15.095Z,103743.41
2022-10-17T19:21:43.588Z,103746.16
2022-10-17T19:24:14.915Z,103747.13
2022-10-17T19:26:44.346Z,103742.88
2022-10-17T19:29:14.568Z,103736.84
2022-10-17T19:31:44.588Z,103745.66
2022-10-17T19:34:13.218Z,103758.78
2022-10-17T19:36:41.776Z,103770.22
2022-10-17T19:39:12.426Z,103770.25
2022-10-17T19:41:41.514Z,103779.03
2022-10-17T19:44:09.713Z,103783.44
2022-10-17T19:46:37.909Z,103793.06
2022-10-17T19:49:07.950Z,103797.47
2022-10-17T19:51:36.063Z,103784.44
2022-10-17T19:54:04.337Z,103793.22
2022-10-17T19:56:36.752Z,103803.75
2022-10-17T19:59:05.259Z,103809.91
2022-10-17T20:01:35.846Z,103823.03
2022-10-17T20:04:03.747Z,103834.41
2022-10-17T20:06:33.587Z,103837.94
2022-10-17T20:09:01.590Z,103850.19
2022-10-17T20:11:30.447Z,103851.94
2022-10-17T20:13:58.674Z,103855.47
2022-10-17T20:16:29.245Z,103862.47
2022-10-17T20:18:58.952Z,103867.75
2022-10-17T20:21:31.598Z,103875.63
2022-10-17T20:24:02.027Z,103875.69
2022-10-17T20:26:38.279Z,103881.84
2022-10-17T20:29:14.211Z,103891.47
2022-10-17T20:31:43.728Z,103894.09
2022-10-17T20:34:14.670Z,103898.50
2022-10-17T20:36:42.580Z,103909.88
2022-10-17T20:39:13.215Z,103906.44
2022-10-17T20:41:41.432Z,103924.78
2022-10-17T20:44:09.483Z,103933.53
2022-10-17T20:46:48.433Z,103944.88
2022-10-17T20:49:25.822Z,103952.75
2022-10-17T20:51:53.719Z,103966.72
2022-10-17T20:54:23.007Z,103977.19
2022-10-17T20:56:51.240Z,103987.66
2022-10-17T20:59:19.415Z,103997.25
2022-10-17T21:01:47.743Z,104010.34
2022-10-17T21:04:44.093Z,104022.56
2022-10-17T21:07:03.844Z,104030.41
2022-10-17T21:09:33.181Z,104033.91
2022-10-17T21:14:29.230Z,104046.13
2022-10-17T21:16:59.921Z,104047.00
2022-10-17T21:19:30.211Z,104059.25
2022-10-17T21:21:58.109Z,104065.34
2022-10-17T21:24:26.016Z,104072.31
2022-10-17T21:26:57.538Z,104075.81
2022-10-17T21:29:25.710Z,104081.94
2022-10-17T21:31:53.772Z,104088.91
2022-10-17T21:34:24.542Z,104093.25
2022-10-17T21:36:53.282Z,104096.75
2022-10-17T21:39:21.908Z,104100.25
2022-10-17T21:41:49.831Z,104105.47
2022-10-17T21:44:21.779Z,104107.25
2022-10-17T21:46:50.173Z,104113.34
2022-10-17T21:49:20.611Z,104123.81
2022-10-17T21:51:49.324Z,104118.56
2022-10-17T21:54:18.552Z,104115.97
2022-10-17T21:56:46.718Z,104115.09
2022-10-17T21:59:14.829Z,104129.03
2022-10-17T22:01:46.282Z,104127.28
2022-10-17T22:04:16.382Z,104129.91
2022-10-17T22:06:46.672Z,104122.06
2022-10-17T22:09:16.391Z,104134.25
2022-10-17T22:11:46.604Z,104136.00
2022-10-17T22:14:16.835Z,104135.13
2022-10-17T22:16:46.941Z,104135.97
2022-10-17T22:19:18.468Z,104135.97
2022-10-17T22:21:46.486Z,104128.97
2022-10-17T22:24:16.974Z,104125.50
2022-10-17T22:26:45.632Z,104128.13
2022-10-17T22:29:13.816Z,104128.09
2022-10-17T22:31:42.250Z,104136.81
2022-10-17T22:34:13.165Z,104138.53
2022-10-17T22:36:41.315Z,104144.63
2022-10-17T22:39:09.441Z,104135.94
2022-10-17T22:41:37.639Z,104148.97
2022-10-17T22:44:05.934Z,104155.06
2022-10-17T22:46:33.969Z,104158.53
2022-10-17T22:49:01.964Z,104156.81
2022-10-17T22:51:31.191Z,104159.41
2022-10-17T22:53:59.073Z,104164.59
2022-10-17T22:56:27.087Z,104173.28
2022-10-17T22:58:54.964Z,104175.91
2022-10-17T23:01:24.596Z,104172.44
2022-10-17T23:03:53.650Z,104185.47
2022-10-17T23:06:22.054Z,104179.38
2022-10-17T23:08:52.257Z,104182.00
2022-10-17T23:11:20.872Z,104186.34
2022-10-17T23:13:48.848Z,104193.31
2022-10-17T23:16:17.041Z,104195.06
2022-10-17T23:18:44.938Z,104195.91
2022-10-17T23:21:13.060Z,104188.06
2022-10-17T23:23:40.904Z,104190.69
2022-10-17T23:26:12.139Z,104190.69
2022-10-17T23:28:40.804Z,104181.09
2022-10-17T23:31:19.468Z,104181.94
2022-10-17T23:33:49.002Z,104181.94
2022-10-17T23:36:18.998Z,104190.66
2022-10-17T23:38:47.703Z,104190.63
2022-10-17T23:41:17.729Z,104194.97
2022-10-17T23:43:45.613Z,104192.34
2022-10-17T23:46:14.009Z,104185.38
2022-10-17T23:48:42.363Z,104181.00
2022-10-17T23:51:11.512Z,104166.22
2022-10-17T23:53:39.639Z,104174.00
2022-10-17T23:56:09.021Z,104173.16
2022-10-17T23:58:38.811Z,104172.25
